Decoded Metar for KIJD (WILLIMANTIC in CT, USA) (IATA:IJD) | Meteo·Mobile Aviation Weather
aviador You're here:

KIJD Decoded Metar

WILLIMANTIC in CT, USA
Report Time2019-02-19 23:52:00
UTC Time2019-02-20 00:52:43
Flight Rules vfr VFR
Wind300° at 06 kt
W.Decomp.*RWY 36: 4.2 kt HW 4.2 kt LCW
RWY 27: 4.2 kt HW 4.2 kt RCW
W.Rank300° ranks 7
Current wind is below 300° avg. (7.6)
Visibility9999 m
Phenomena:N/A
Clouds:N/A
Expected CloudBase > 5,600 ft AGL from Temp-Dew spread
CeilingNone
Temp-3°C (ISA -18)
Dew Point-17°C (33% RH)
AAT-8.6°C
QNH1034 hPa
Density Alt-2,595 ft
Elevation246 ft
Report Wrong Elevation
Raw Report
KIJD 192352Z AUTO 30006KT 10SM CLR M03/M17 A3054 RMK AO2 SLP343
T10331172 11011 21033 53014=

Extra information for KIJD:More info

Metar Taf Metar & Taf Last 4 Metars F.Rules Stats Wind Profile Meteogram Temp Stats Airport Information Weather charts Add Link Nearby VenuesMetar ALERT Operation Metar Decoded Social comments

AIRNAV info for KIJD